Time;durP1;ratioP1;P1;durP2;ratioP2;P2;SDS_P1;SDS_P2;PMS_P1;PMS_P2;Temp;Humidity;BMP_temperature;BMP_pressure;BME280_temperature;BME280_humidity;BME280_pressure;Samples;Min_cycle;Max_cycle;Signal;HPM_P1;HPM_P2
2021/11/13 00:00:45;;;;;;;37.03;24.15;;;8.10;99.90;;;;;;4793636;29;20386;-86
2021/11/13 00:03:13;;;;;;;44.95;26.08;;;8.10;99.90;;;;;;4799602;29;20053;-85
2021/11/13 00:05:42;;;;;;;38.47;25.13;;;8.20;99.90;;;;;;4813411;29;20399;-85
2021/11/13 00:08:09;;;;;;;40.53;24.73;;;8.20;99.90;;;;;;4799638;29;20046;-87
2021/11/13 00:10:42;;;;;;;41.65;25.05;;;8.10;99.90;;;;;;4799675;29;20081;-86
2021/11/13 00:13:09;;;;;;;41.63;25.80;;;8.10;99.90;;;;;;4787248;29;20050;-88
2021/11/13 00:15:41;;;;;;;48.42;26.50;;;8.10;99.90;;;;;;4788261;29;20490;-85
2021/11/13 00:18:11;;;;;;;39.00;23.77;;;8.10;99.90;;;;;;4802444;29;20482;-85
2021/11/13 00:20:40;;;;;;;45.33;26.33;;;8.10;99.90;;;;;;4807552;29;20049;-87
2021/11/13 00:23:09;;;;;;;38.45;23.88;;;8.10;99.90;;;;;;4823380;29;20063;-86
2021/11/13 00:25:35;;;;;;;43.17;26.10;;;8.10;99.90;;;;;;4806567;29;20038;-86
2021/11/13 00:28:04;;;;;;;39.22;23.17;;;8.10;99.90;;;;;;4815154;29;20476;-85
2021/11/13 00:30:30;;;;;;;31.08;20.60;;;8.10;99.90;;;;;;4780970;29;20046;-85
2021/11/13 00:32:56;;;;;;;44.40;26.02;;;8.20;99.90;;;;;;4823211;29;20049;-86
2021/11/13 00:35:21;;;;;;;37.20;22.70;;;8.20;99.90;;;;;;4796810;29;20046;-87
2021/11/13 00:37:48;;;;;;;37.63;23.63;;;8.20;99.90;;;;;;4785102;29;20066;-85
2021/11/13 00:40:16;;;;;;;39.42;23.83;;;8.20;99.90;;;;;;4812136;29;20085;-85
2021/11/13 00:42:43;;;;;;;41.95;24.63;;;8.20;99.90;;;;;;4789091;29;20045;-86
2021/11/13 00:45:10;;;;;;;40.42;24.20;;;8.20;99.90;;;;;;4810199;29;20505;-87
2021/11/13 00:47:36;;;;;;;41.30;25.15;;;8.20;99.90;;;;;;4788959;29;20502;-85
2021/11/13 00:50:04;;;;;;;37.15;23.45;;;8.20;99.90;;;;;;4807327;29;20042;-86
2021/11/13 00:52:33;;;;;;;39.10;24.52;;;8.20;99.90;;;;;;4803982;29;20046;-88
2021/11/13 00:54:59;;;;;;;37.65;23.02;;;8.20;99.90;;;;;;4781298;29;20035;-85
2021/11/13 00:57:25;;;;;;;41.72;25.55;;;8.20;99.90;;;;;;4786049;29;20071;-87
2021/11/13 00:59:51;;;;;;;39.63;24.08;;;8.20;99.90;;;;;;4782363;29;21620;-85
2021/11/13 01:02:16;;;;;;;38.25;23.75;;;8.20;99.90;;;;;;4781057;29;20057;-85
2021/11/13 01:04:42;;;;;;;41.13;25.63;;;8.20;99.90;;;;;;4788307;29;20037;-85
2021/11/13 01:07:08;;;;;;;42.08;26.10;;;8.30;99.90;;;;;;4805883;29;20098;-87
2021/11/13 01:09:34;;;;;;;45.92;27.88;;;8.30;99.90;;;;;;4792842;29;20136;-85
2021/11/13 01:12:00;;;;;;;48.10;27.23;;;8.20;99.90;;;;;;4790977;29;20045;-86
2021/11/13 01:14:27;;;;;;;46.63;28.95;;;8.30;99.90;;;;;;4821896;29;20102;-84
2021/11/13 01:16:54;;;;;;;43.40;25.50;;;8.20;99.90;;;;;;4813923;29;20053;-85
2021/11/13 01:19:20;;;;;;;51.67;29.05;;;8.20;99.90;;;;;;4825230;29;20518;-86
2021/11/13 01:21:46;;;;;;;58.97;29.65;;;8.20;99.90;;;;;;4832554;29;20046;-86
2021/11/13 01:24:13;;;;;;;50.90;27.52;;;8.20;99.90;;;;;;4803265;29;20071;-85
2021/11/13 01:26:39;;;;;;;51.03;28.60;;;8.20;99.90;;;;;;4803937;29;20046;-87
2021/11/13 01:29:05;;;;;;;42.25;25.63;;;8.20;99.90;;;;;;4806183;29;20069;-85
2021/11/13 01:31:31;;;;;;;49.75;28.08;;;8.20;99.90;;;;;;4804796;29;20049;-86
2021/11/13 01:33:57;;;;;;;53.45;29.88;;;8.20;99.90;;;;;;4812030;29;20038;-85
2021/11/13 01:36:24;;;;;;;41.08;25.27;;;8.20;99.90;;;;;;4780188;29;20053;-86
2021/11/13 01:38:51;;;;;;;52.10;29.58;;;8.20;99.90;;;;;;4804455;29;20043;-85
2021/11/13 01:41:20;;;;;;;52.38;29.50;;;8.20;99.90;;;;;;4806587;29;20038;-86
2021/11/13 01:43:48;;;;;;;54.85;32.00;;;8.20;99.90;;;;;;4770809;29;20090;-87
2021/11/13 01:46:14;;;;;;;65.75;30.40;;;8.20;99.90;;;;;;4777699;29;20117;-86
2021/11/13 01:48:40;;;;;;;57.38;32.75;;;8.20;99.90;;;;;;4776414;29;20673;-86
2021/11/13 01:51:27;;;;;;;62.35;32.33;;;8.20;99.90;;;;;;4789375;29;20071;-86
2021/11/13 01:53:55;;;;;;;55.80;31.75;;;8.20;99.90;;;;;;4803913;29;20045;-86
2021/11/13 01:56:25;;;;;;;53.60;31.35;;;8.20;99.90;;;;;;4790250;29;20042;-85
2021/11/13 01:58:54;;;;;;;57.70;32.15;;;8.20;99.90;;;;;;4796296;29;20070;-88
2021/11/13 02:01:21;;;;;;;71.38;35.78;;;8.20;99.90;;;;;;4790471;29;20448;-85
2021/11/13 02:03:48;;;;;;;65.97;34.60;;;8.20;99.90;;;;;;4789996;29;20510;-86
2021/11/13 02:06:21;;;;;;;74.80;36.47;;;8.20;99.90;;;;;;4777910;29;20047;-87
2021/11/13 02:08:48;;;;;;;72.90;38.83;;;8.20;99.90;;;;;;4806402;29;20074;-84
2021/11/13 02:11:20;;;;;;;65.78;35.83;;;8.20;99.90;;;;;;4790600;29;20147;-86
2021/11/13 02:13:46;;;;;;;77.63;38.17;;;8.20;99.90;;;;;;4773925;29;20081;-85
2021/11/13 02:16:12;;;;;;;69.75;34.95;;;8.20;99.90;;;;;;4807738;29;20038;-86
2021/11/13 02:18:40;;;;;;;72.55;38.40;;;8.20;99.90;;;;;;4764667;29;20049;-85
2021/11/13 02:21:07;;;;;;;69.38;37.65;;;8.20;99.90;;;;;;4779343;29;20345;-85
2021/11/13 02:23:33;;;;;;;70.40;37.28;;;8.20;99.90;;;;;;4790629;29;20034;-85
2021/11/13 02:25:59;;;;;;;70.75;36.83;;;8.20;99.90;;;;;;4794153;29;20038;-85
2021/11/13 02:28:26;;;;;;;64.45;34.17;;;8.20;99.90;;;;;;4786892;29;20039;-86
2021/11/13 02:30:55;;;;;;;76.13;37.90;;;8.20;99.90;;;;;;4789500;29;20042;-84
2021/11/13 02:33:21;;;;;;;71.55;37.95;;;8.20;99.90;;;;;;4788684;29;20042;-86
2021/11/13 02:35:50;;;;;;;65.28;34.97;;;8.30;99.90;;;;;;4792749;29;20102;-84
2021/11/13 02:38:25;;;;;;;74.00;38.78;;;8.20;99.90;;;;;;4792425;29;20053;-84
2021/11/13 02:40:56;;;;;;;72.55;38.50;;;8.30;99.90;;;;;;4796252;29;20047;-86
2021/11/13 02:43:24;;;;;;;83.95;38.03;;;8.30;99.90;;;;;;4779354;29;20042;-84
2021/11/13 02:45:52;;;;;;;77.78;38.05;;;8.30;99.90;;;;;;4794795;29;20046;-85
2021/11/13 02:48:19;;;;;;;89.63;41.13;;;8.30;99.90;;;;;;4796563;29;20083;-83
2021/11/13 02:50:45;;;;;;;72.40;37.00;;;8.30;99.90;;;;;;4780837;29;20050;-85
2021/11/13 02:53:15;;;;;;;82.28;37.80;;;8.30;99.90;;;;;;4783162;29;20494;-87
2021/11/13 02:55:41;;;;;;;87.65;39.22;;;8.30;99.90;;;;;;4810741;29;20054;-85
2021/11/13 02:58:07;;;;;;;72.57;33.88;;;8.30;99.90;;;;;;4797899;29;20115;-84
2021/11/13 03:00:34;;;;;;;82.53;38.45;;;8.30;99.90;;;;;;4773110;29;22077;-84
2021/11/13 03:03:00;;;;;;;91.72;39.05;;;8.30;99.90;;;;;;4793502;29;20250;-84
2021/11/13 03:05:35;;;;;;;78.65;36.00;;;8.30;99.90;;;;;;4777552;29;20053;-87
2021/11/13 03:08:04;;;;;;;86.75;39.95;;;8.30;99.90;;;;;;4807228;29;20123;-84
2021/11/13 03:10:33;;;;;;;68.97;31.63;;;8.30;99.90;;;;;;4794141;29;20386;-85
2021/11/13 03:12:59;;;;;;;85.70;37.92;;;8.30;99.90;;;;;;4818234;29;20039;-85
2021/11/13 03:15:25;;;;;;;85.22;37.63;;;8.40;99.90;;;;;;4790296;29;20042;-86
2021/11/13 03:17:53;;;;;;;85.88;36.90;;;8.40;99.90;;;;;;4789377;29;20041;-85
2021/11/13 03:20:29;;;;;;;77.95;35.60;;;8.40;99.90;;;;;;4788439;29;20453;-86
2021/11/13 03:23:00;;;;;;;69.85;34.72;;;8.40;99.90;;;;;;4806228;29;20054;-86
2021/11/13 03:25:33;;;;;;;83.68;38.05;;;8.40;99.90;;;;;;4798578;29;20038;-85
2021/11/13 03:28:01;;;;;;;72.05;33.80;;;8.40;99.90;;;;;;4783067;29;20073;-85
2021/11/13 03:30:27;;;;;;;67.88;32.88;;;8.40;99.90;;;;;;4808503;29;20050;-84
2021/11/13 03:32:53;;;;;;;80.45;37.22;;;8.50;99.90;;;;;;4758481;29;20082;-85
2021/11/13 03:35:27;;;;;;;69.47;35.72;;;8.50;99.90;;;;;;4784318;29;20513;-84
2021/11/13 03:38:06;;;;;;;77.03;36.78;;;8.50;99.90;;;;;;4782925;29;20504;-86
2021/11/13 03:40:34;;;;;;;71.18;34.05;;;8.50;99.90;;;;;;4786028;29;20047;-84
2021/11/13 03:43:00;;;;;;;110.05;40.88;;;8.50;99.90;;;;;;4774356;29;20042;-83
2021/11/13 03:45:26;;;;;;;72.47;33.33;;;8.50;99.90;;;;;;4790590;29;20049;-84
2021/11/13 03:47:52;;;;;;;74.28;35.88;;;8.50;99.90;;;;;;4772373;29;20502;-84
2021/11/13 03:50:18;;;;;;;84.07;38.17;;;8.50;99.90;;;;;;4774991;29;20110;-85
2021/11/13 03:52:44;;;;;;;65.63;34.72;;;8.60;99.90;;;;;;4772207;29;20043;-87
2021/11/13 03:55:10;;;;;;;76.38;37.58;;;8.60;99.90;;;;;;4793751;29;20061;-86
2021/11/13 03:57:36;;;;;;;76.90;37.03;;;8.60;99.90;;;;;;4766229;29;20046;-86
2021/11/13 04:00:04;;;;;;;67.30;34.03;;;8.60;99.90;;;;;;4769255;29;20414;-84
2021/11/13 04:02:30;;;;;;;71.80;35.40;;;8.60;99.90;;;;;;4780036;29;20050;-86
2021/11/13 04:04:56;;;;;;;87.38;39.20;;;8.60;99.90;;;;;;4766272;29;20046;-85
2021/11/13 04:07:21;;;;;;;81.55;37.80;;;8.70;99.90;;;;;;4754668;29;20042;-84
2021/11/13 04:09:47;;;;;;;80.68;39.10;;;8.70;99.90;;;;;;4794804;29;20050;-86
2021/11/13 04:12:14;;;;;;;73.20;34.22;;;8.70;99.90;;;;;;4766382;29;20057;-85
2021/11/13 04:14:45;;;;;;;70.35;35.00;;;8.70;99.90;;;;;;4781949;29;20110;-85
2021/11/13 04:17:12;;;;;;;74.13;37.10;;;8.70;99.90;;;;;;4792846;29;20455;-86
2021/11/13 04:19:38;;;;;;;76.95;38.47;;;8.70;99.90;;;;;;4783515;29;20054;-85
2021/11/13 04:22:05;;;;;;;83.05;38.90;;;8.70;99.90;;;;;;4765258;29;20521;-85
2021/11/13 04:24:31;;;;;;;88.95;39.85;;;8.70;99.90;;;;;;4762651;29;20062;-84
2021/11/13 04:26:57;;;;;;;75.45;38.03;;;8.70;99.90;;;;;;4787084;29;20042;-85
2021/11/13 04:29:23;;;;;;;72.50;36.70;;;8.80;99.90;;;;;;4757531;29;20046;-85
2021/11/13 04:31:49;;;;;;;90.18;40.08;;;8.80;99.90;;;;;;4772886;29;20054;-84
2021/11/13 04:34:23;;;;;;;81.53;39.13;;;8.80;99.90;;;;;;4782156;29;20494;-86
2021/11/13 04:36:54;;;;;;;90.88;40.58;;;8.80;99.90;;;;;;4777440;29;20650;-84
2021/11/13 04:39:23;;;;;;;85.75;40.88;;;8.80;99.90;;;;;;4785754;29;20063;-84
2021/11/13 04:41:50;;;;;;;67.88;35.10;;;8.80;99.90;;;;;;4786896;29;20050;-85
2021/11/13 04:44:19;;;;;;;70.05;36.25;;;8.80;99.90;;;;;;4768881;29;20090;-85
2021/11/13 04:46:45;;;;;;;65.60;32.83;;;8.80;99.90;;;;;;4787809;29;20070;-85
2021/11/13 04:49:11;;;;;;;97.55;41.47;;;8.80;99.90;;;;;;4783152;29;20054;-86
2021/11/13 04:51:37;;;;;;;88.50;39.40;;;8.80;99.90;;;;;;4787115;29;20274;-85
2021/11/13 04:54:03;;;;;;;74.45;36.47;;;8.90;99.90;;;;;;4794426;29;20050;-85
2021/11/13 04:56:29;;;;;;;89.70;41.30;;;8.80;99.90;;;;;;4787217;29;20077;-86
2021/11/13 04:58:55;;;;;;;94.32;41.00;;;8.90;99.90;;;;;;4792932;29;20133;-84
2021/11/13 05:01:21;;;;;;;94.63;40.63;;;8.90;99.90;;;;;;4762685;29;20110;-85
2021/11/13 05:03:47;;;;;;;103.50;42.40;;;8.80;99.90;;;;;;4755248;29;20047;-86
2021/11/13 05:06:12;;;;;;;86.05;40.45;;;8.90;99.90;;;;;;4782425;29;20084;-86
2021/11/13 05:08:38;;;;;;;80.00;37.35;;;8.90;99.90;;;;;;4785217;29;20058;-86
2021/11/13 05:11:04;;;;;;;89.47;39.55;;;8.90;99.90;;;;;;4768541;29;20050;-85
2021/11/13 05:13:29;;;;;;;84.85;39.85;;;8.90;99.90;;;;;;4771752;29;20213;-86
2021/11/13 05:15:55;;;;;;;76.60;38.58;;;8.90;99.90;;;;;;4767341;29;20038;-85
2021/11/13 05:18:22;;;;;;;86.15;39.22;;;8.90;99.90;;;;;;4798319;29;20049;-86
2021/11/13 05:20:51;;;;;;;87.28;40.67;;;8.90;99.90;;;;;;4770907;29;20498;-89
2021/11/13 05:23:17;;;;;;;92.82;40.95;;;9.00;99.90;;;;;;4768984;29;20035;-84
2021/11/13 05:25:43;;;;;;;79.03;37.38;;;9.00;99.90;;;;;;4786348;29;20042;-85
2021/11/13 05:28:09;;;;;;;75.10;37.97;;;9.00;99.90;;;;;;4786579;29;20122;-84
2021/11/13 05:30:34;;;;;;;75.28;37.38;;;9.00;99.90;;;;;;4768463;29;20043;-84
2021/11/13 05:33:00;;;;;;;79.07;38.63;;;9.00;99.90;;;;;;4758394;29;20038;-84
2021/11/13 05:35:26;;;;;;;74.50;38.63;;;9.00;99.90;;;;;;4769204;29;20076;-85
2021/11/13 05:37:53;;;;;;;81.28;37.58;;;9.00;99.90;;;;;;4768871;29;20050;-84
2021/11/13 05:40:20;;;;;;;78.20;36.72;;;9.00;99.90;;;;;;4772078;29;20054;-83
2021/11/13 05:42:46;;;;;;;78.85;37.00;;;9.00;99.90;;;;;;4786905;29;20066;-84
2021/11/13 05:45:13;;;;;;;79.47;39.03;;;9.00;99.90;;;;;;4781694;29;20356;-86
2021/11/13 05:47:40;;;;;;;83.78;39.45;;;9.00;99.90;;;;;;4800692;29;20038;-85
2021/11/13 05:50:10;;;;;;;70.18;36.17;;;9.00;99.90;;;;;;4782383;29;20063;-84
2021/11/13 05:52:37;;;;;;;76.90;36.25;;;9.00;99.90;;;;;;4783218;29;20067;-85
2021/11/13 05:55:03;;;;;;;66.57;32.67;;;9.00;99.90;;;;;;4786475;29;20046;-85
2021/11/13 05:57:28;;;;;;;73.50;36.58;;;9.00;99.90;;;;;;4767019;29;20087;-86
2021/11/13 05:59:55;;;;;;;83.68;37.60;;;9.10;99.90;;;;;;4765440;29;20038;-84
2021/11/13 06:02:25;;;;;;;75.28;35.70;;;9.00;99.90;;;;;;4767412;29;20061;-85
2021/11/13 06:04:51;;;;;;;78.05;38.10;;;9.00;99.90;;;;;;4766132;29;20673;-85
2021/11/13 06:07:17;;;;;;;68.97;34.75;;;9.10;99.90;;;;;;4746451;29;20045;-83
2021/11/13 06:09:43;;;;;;;84.30;37.75;;;9.10;99.90;;;;;;4750261;29;20169;-86
2021/11/13 06:12:09;;;;;;;69.70;36.25;;;9.00;99.90;;;;;;4780863;29;20141;-84
2021/11/13 06:14:35;;;;;;;71.60;34.67;;;9.00;99.90;;;;;;4782157;29;20077;-82
2021/11/13 06:17:01;;;;;;;73.88;35.00;;;9.10;99.90;;;;;;4756890;29;20035;-85
2021/11/13 06:19:26;;;;;;;75.43;36.95;;;9.10;99.90;;;;;;4773115;29;20406;-84
2021/11/13 06:21:52;;;;;;;75.93;36.60;;;9.10;99.90;;;;;;4771361;29;20110;-85
2021/11/13 06:24:18;;;;;;;64.30;32.05;;;9.10;99.90;;;;;;4786757;29;20083;-84
2021/11/13 06:26:44;;;;;;;73.32;35.35;;;9.00;99.90;;;;;;4774783;29;20034;-85
2021/11/13 06:29:09;;;;;;;79.15;35.63;;;9.00;99.90;;;;;;4767368;29;20042;-84
2021/11/13 06:31:36;;;;;;;100.38;38.97;;;9.00;99.90;;;;;;4773035;29;20416;-84
2021/11/13 06:34:01;;;;;;;89.75;38.30;;;9.00;99.90;;;;;;4773201;29;20057;-85
2021/11/13 06:36:27;;;;;;;117.55;40.22;;;9.00;99.90;;;;;;4784029;29;20046;-83
2021/11/13 06:38:53;;;;;;;92.25;38.28;;;9.00;99.90;;;;;;4769549;29;20109;-82
2021/11/13 06:41:19;;;;;;;82.47;37.60;;;9.00;99.90;;;;;;4794854;29;20118;-83
2021/11/13 06:43:45;;;;;;;80.55;36.17;;;9.00;99.90;;;;;;4788549;29;20065;-83
2021/11/13 06:46:11;;;;;;;74.85;34.55;;;9.00;99.90;;;;;;4757344;29;20038;-83
2021/11/13 06:48:36;;;;;;;105.72;39.50;;;9.00;99.90;;;;;;4755433;29;20038;-83
2021/11/13 06:51:02;;;;;;;98.85;39.42;;;9.00;99.90;;;;;;4767948;29;20083;-83
2021/11/13 06:53:28;;;;;;;87.93;39.33;;;9.00;99.90;;;;;;4773096;29;20103;-83
2021/11/13 06:55:54;;;;;;;75.07;36.97;;;9.00;99.90;;;;;;4777146;29;20076;-84
2021/11/13 06:58:19;;;;;;;82.45;36.78;;;9.00;99.90;;;;;;4768116;29;20074;-84
2021/11/13 07:00:45;;;;;;;68.97;34.83;;;8.90;99.90;;;;;;4781355;29;20043;-83
2021/11/13 07:03:11;;;;;;;63.17;34.42;;;8.90;99.90;;;;;;4785838;29;20034;-84
2021/11/13 07:05:37;;;;;;;66.57;34.15;;;8.90;99.90;;;;;;4773786;29;20134;-84
2021/11/13 07:08:03;;;;;;;67.70;35.40;;;8.90;99.90;;;;;;4767719;29;20452;-85
2021/11/13 07:10:29;;;;;;;59.45;32.63;;;8.90;99.90;;;;;;4772440;29;20050;-85
2021/11/13 07:12:56;;;;;;;63.28;34.08;;;8.90;99.90;;;;;;4786193;29;20945;-85
2021/11/13 07:15:24;;;;;;;73.57;35.35;;;8.90;99.90;;;;;;4788687;29;20527;-84
2021/11/13 07:17:50;;;;;;;66.95;34.58;;;8.90;99.90;;;;;;4771231;29;20046;-84
2021/11/13 07:20:16;;;;;;;62.60;34.13;;;8.90;99.90;;;;;;4783337;29;20046;-84
2021/11/13 07:22:45;;;;;;;69.82;35.47;;;8.90;99.90;;;;;;4773817;29;20771;-85
2021/11/13 07:25:15;;;;;;;65.47;34.47;;;8.90;99.90;;;;;;4801291;29;20090;-85
2021/11/13 07:27:45;;;;;;;74.05;36.17;;;8.90;99.90;;;;;;4801913;29;20041;-85
2021/11/13 07:30:15;;;;;;;69.95;35.50;;;8.90;99.90;;;;;;4803816;29;20050;-85
2021/11/13 07:32:42;;;;;;;72.10;36.88;;;8.90;99.90;;;;;;4792076;29;20046;-85
2021/11/13 07:35:08;;;;;;;80.60;37.67;;;8.90;99.90;;;;;;4782236;29;20054;-85
2021/11/13 07:37:34;;;;;;;84.78;38.33;;;9.00;99.90;;;;;;4785980;29;20046;-85
2021/11/13 07:40:00;;;;;;;67.93;34.45;;;9.00;99.90;;;;;;4792061;29;20045;-85
2021/11/13 07:42:26;;;;;;;75.63;37.28;;;9.00;99.90;;;;;;4803401;29;20046;-86
2021/11/13 07:44:52;;;;;;;82.22;38.72;;;9.00;99.90;;;;;;4770545;29;20564;-83
2021/11/13 07:47:17;;;;;;;77.22;37.17;;;9.00;99.90;;;;;;4763258;29;20077;-83
2021/11/13 07:49:43;;;;;;;77.90;37.53;;;9.00;99.90;;;;;;4778407;29;20061;-85
2021/11/13 07:52:10;;;;;;;83.15;38.25;;;9.00;99.90;;;;;;4807567;29;20533;-85
2021/11/13 07:54:36;;;;;;;82.07;39.05;;;9.00;99.90;;;;;;4791286;29;20182;-84
2021/11/13 07:57:05;;;;;;;79.80;38.72;;;9.10;99.90;;;;;;4770512;29;20050;-85
2021/11/13 07:59:31;;;;;;;93.47;40.30;;;9.00;99.90;;;;;;4788013;29;20065;-85
2021/11/13 08:01:57;;;;;;;108.03;41.83;;;9.00;99.90;;;;;;4786038;29;20050;-84
2021/11/13 08:04:22;;;;;;;89.47;40.83;;;9.10;99.90;;;;;;4777109;29;20035;-86
2021/11/13 08:06:48;;;;;;;106.00;41.08;;;9.10;99.90;;;;;;4770082;29;20329;-84
2021/11/13 08:09:14;;;;;;;107.70;41.63;;;9.10;99.90;;;;;;4757810;29;20072;-86
2021/11/13 08:11:40;;;;;;;140.05;46.33;;;9.10;99.90;;;;;;4779187;29;20384;-86
2021/11/13 08:14:05;;;;;;;103.53;44.05;;;9.10;99.90;;;;;;4778460;29;20074;-86
2021/11/13 08:16:31;;;;;;;127.65;45.53;;;9.20;99.90;;;;;;4791351;29;20310;-85
2021/11/13 08:18:58;;;;;;;146.93;46.55;;;9.20;99.90;;;;;;4767214;29;20129;-85
2021/11/13 08:21:24;;;;;;;95.47;40.65;;;9.20;99.90;;;;;;4782073;29;20548;-83
2021/11/13 08:23:50;;;;;;;121.15;43.65;;;9.20;99.90;;;;;;4768313;29;20135;-86
2021/11/13 08:26:16;;;;;;;102.50;43.33;;;9.30;99.90;;;;;;4762448;29;20042;-85
2021/11/13 08:28:42;;;;;;;114.20;45.47;;;9.20;99.90;;;;;;4788173;29;20057;-85
2021/11/13 08:31:08;;;;;;;116.15;46.05;;;9.30;99.90;;;;;;4768737;29;20625;-85
2021/11/13 08:33:33;;;;;;;107.60;44.65;;;9.30;99.90;;;;;;4779957;29;20039;-85
2021/11/13 08:35:59;;;;;;;116.50;44.55;;;9.30;99.90;;;;;;4798842;29;20049;-86
2021/11/13 08:38:25;;;;;;;128.85;45.60;;;9.30;99.90;;;;;;4783960;29;20073;-87
2021/11/13 08:40:53;;;;;;;109.85;46.03;;;9.30;99.90;;;;;;4782963;29;20054;-88
2021/11/13 08:43:21;;;;;;;141.90;46.40;;;9.40;99.90;;;;;;4787316;29;20326;-86
2021/11/13 08:45:48;;;;;;;103.57;44.05;;;9.40;99.90;;;;;;4764983;29;20122;-87
2021/11/13 08:48:20;;;;;;;111.90;45.17;;;9.40;99.90;;;;;;4779568;29;20052;-87
2021/11/13 08:50:47;;;;;;;102.78;43.20;;;9.40;99.90;;;;;;4763257;29;20078;-87
2021/11/13 08:53:13;;;;;;;112.50;44.47;;;9.40;99.90;;;;;;4790711;29;20490;-85
2021/11/13 08:55:41;;;;;;;124.78;46.15;;;9.40;99.90;;;;;;4774885;29;20523;-86
2021/11/13 08:58:08;;;;;;;117.55;44.88;;;9.50;99.90;;;;;;4776612;29;20099;-86
2021/11/13 09:00:39;;;;;;;99.38;43.40;;;9.50;99.90;;;;;;4785626;29;20137;-86
2021/11/13 09:03:09;;;;;;;98.80;44.55;;;9.50;99.90;;;;;;4787377;29;20057;-87
2021/11/13 09:05:35;;;;;;;163.43;45.72;;;9.60;99.90;;;;;;4803958;29;20678;-87
2021/11/13 09:08:01;;;;;;;126.82;46.72;;;9.50;99.90;;;;;;4759832;29;20045;-89
2021/11/13 09:10:29;;;;;;;124.57;45.85;;;9.60;99.90;;;;;;4767382;29;20058;-88
2021/11/13 09:12:55;;;;;;;134.73;46.22;;;9.60;99.90;;;;;;4795534;29;20047;-86
2021/11/13 09:15:27;;;;;;;128.70;45.72;;;9.60;99.90;;;;;;4791625;29;20131;-88
2021/11/13 09:17:54;;;;;;;114.20;44.88;;;9.70;99.90;;;;;;4800914;29;20503;-87
2021/11/13 09:20:23;;;;;;;155.63;46.65;;;9.60;99.90;;;;;;4774419;29;20121;-86
2021/11/13 09:22:49;;;;;;;130.02;44.42;;;9.70;99.90;;;;;;4782178;29;20048;-86
2021/11/13 09:25:16;;;;;;;104.85;43.72;;;9.70;99.90;;;;;;4773406;29;20123;-85
2021/11/13 09:27:44;;;;;;;132.13;45.38;;;9.70;99.90;;;;;;4773857;29;20146;-87
2021/11/13 09:30:23;;;;;;;101.60;44.20;;;9.70;99.90;;;;;;4789800;29;20403;-86
2021/11/13 09:32:49;;;;;;;88.97;42.22;;;9.80;99.90;;;;;;4795843;29;20042;-86
2021/11/13 09:35:28;;;;;;;92.22;43.25;;;9.80;99.90;;;;;;4802206;29;20038;-85
2021/11/13 09:37:58;;;;;;;83.90;41.38;;;9.80;99.90;;;;;;4797883;29;20099;-85
2021/11/13 09:40:27;;;;;;;107.22;45.00;;;9.90;99.90;;;;;;4794213;29;20046;-87
2021/11/13 09:46:37;;;;;;;94.43;41.97;;;9.90;99.90;;;;;;4793029;29;20502;-86
2021/11/13 09:49:05;;;;;;;91.90;40.92;;;10.00;99.90;;;;;;4804387;29;20491;-87
2021/11/13 09:51:31;;;;;;;114.25;44.35;;;10.00;99.90;;;;;;4800573;29;20037;-85
2021/11/13 09:53:58;;;;;;;113.50;44.53;;;10.00;99.90;;;;;;4782096;29;20062;-84
2021/11/13 09:56:25;;;;;;;121.95;44.38;;;10.00;99.90;;;;;;4781236;29;20038;-85
2021/11/13 09:58:51;;;;;;;116.93;45.65;;;10.00;99.90;;;;;;4777982;29;20041;-86
2021/11/13 10:01:18;;;;;;;97.78;42.42;;;10.10;99.90;;;;;;4814573;29;20037;-84
2021/11/13 10:03:46;;;;;;;91.20;41.90;;;10.10;99.90;;;;;;4783383;29;20192;-86
2021/11/13 10:06:13;;;;;;;94.20;41.60;;;10.10;99.90;;;;;;4789362;29;20127;-87
2021/11/13 10:08:43;;;;;;;80.22;39.75;;;10.20;99.90;;;;;;4782570;29;20062;-85
2021/11/13 10:11:15;;;;;;;88.53;39.45;;;10.20;99.90;;;;;;4796794;29;20226;-85
2021/11/13 10:13:44;;;;;;;77.70;38.67;;;10.20;99.90;;;;;;4794315;29;20070;-85
2021/11/13 10:16:52;;;;;;;85.45;39.65;;;10.20;99.90;;;;;;4805011;29;20041;-85
2021/11/13 10:19:45;;;;;;;74.82;37.88;;;10.30;99.90;;;;;;4787755;29;20042;-85
2021/11/13 10:22:14;;;;;;;82.78;38.38;;;10.30;99.90;;;;;;4770207;29;20549;-85
2021/11/13 10:24:59;;;;;;;75.13;37.22;;;10.30;99.90;;;;;;4794304;29;20038;-85
2021/11/13 10:27:57;;;;;;;81.35;38.80;;;10.30;99.90;;;;;;4784721;29;20057;-86
2021/11/13 10:30:29;;;;;;;76.50;37.25;;;10.30;99.90;;;;;;4797411;29;20301;-85
2021/11/13 10:32:57;;;;;;;;;;;10.30;99.90;;;;;;4760430;29;20267;-84
2021/11/13 10:36:04;;;;;;;75.20;35.30;;;10.30;99.90;;;;;;4807306;29;19921;-86
2021/11/13 10:38:43;;;;;;;;;;;;;;;;;;;;;
2021/11/13 10:41:13;;;;;;;71.35;35.35;;;10.30;99.90;;;;;;4804262;29;20216;-84
2021/11/13 10:43:45;;;;;;;79.13;35.85;;;10.30;99.90;;;;;;4786289;29;20055;-85
2021/11/13 10:46:25;;;;;;;76.03;35.42;;;10.40;99.90;;;;;;4796805;29;20176;-87
2021/11/13 10:48:59;;;;;;;75.78;35.20;;;10.40;99.90;;;;;;4808056;29;20058;-84
2021/11/13 10:51:33;;;;;;;71.65;34.08;;;10.40;99.90;;;;;;4796310;29;20039;-86
2021/11/13 10:54:14;;;;;;;75.55;34.50;;;10.40;99.90;;;;;;4790308;29;20744;-85
2021/11/13 10:56:51;;;;;;;70.65;33.47;;;10.40;99.90;;;;;;4790469;29;20061;-85
2021/11/13 10:59:29;;;;;;;71.35;33.65;;;10.40;99.90;;;;;;4784083;29;20062;-87
2021/11/13 11:02:06;;;;;;;76.47;35.10;;;10.40;99.90;;;;;;4810593;29;20039;-85
2021/11/13 11:08:40;;;;;;;64.57;32.50;;;10.50;99.90;;;;;;4802208;29;20046;-85
2021/11/13 11:11:35;;;;;;;64.95;31.90;;;10.40;99.90;;;;;;4794859;29;20076;-85
2021/11/13 11:14:08;;;;;;;62.45;32.83;;;10.40;99.90;;;;;;4801728;29;20042;-85
2021/11/13 11:16:38;;;;;;;;;;;10.50;99.90;;;;;;4790509;29;20373;-85
2021/11/13 11:19:17;;;;;;;65.18;31.17;;;10.50;99.90;;;;;;4782997;29;19973;-86
2021/11/13 11:22:00;;;;;;;60.83;30.75;;;10.50;99.90;;;;;;4791900;29;20565;-87
2021/11/13 11:24:28;;;;;;;62.53;31.80;;;10.50;99.90;;;;;;4786686;29;20038;-85
2021/11/13 11:26:57;;;;;;;63.42;31.50;;;10.50;99.90;;;;;;4790942;29;20117;-85
2021/11/13 11:29:32;;;;;;;66.88;32.97;;;10.50;99.90;;;;;;4791405;29;20058;-87
2021/11/13 11:32:02;;;;;;;65.80;34.25;;;10.50;99.90;;;;;;4787086;29;20135;-85
2021/11/13 11:34:38;;;;;;;58.67;30.52;;;10.50;99.90;;;;;;4801412;29;20049;-88
2021/11/13 11:37:12;;;;;;;59.22;30.27;;;10.50;99.90;;;;;;4786623;29;20134;-85
2021/11/13 11:39:40;;;;;;;61.88;30.50;;;10.50;99.90;;;;;;4783158;29;20130;-86
2021/11/13 11:42:07;;;;;;;64.40;32.50;;;10.50;99.90;;;;;;4769475;29;20042;-85
2021/11/13 11:44:35;;;;;;;64.88;31.77;;;10.50;99.90;;;;;;4786216;29;20118;-85
2021/11/13 11:47:02;;;;;;;61.97;30.23;;;10.60;99.90;;;;;;4798260;29;20034;-85
2021/11/13 11:49:29;;;;;;;61.83;31.33;;;10.60;99.90;;;;;;4789498;29;20039;-86
2021/11/13 11:51:59;;;;;;;59.17;31.65;;;10.60;99.90;;;;;;4769486;29;20129;-85
2021/11/13 11:54:29;;;;;;;66.60;30.30;;;10.60;99.90;;;;;;4770628;29;20467;-87
2021/11/13 11:56:59;;;;;;;61.50;31.25;;;10.60;99.90;;;;;;4783129;29;20046;-88
2021/11/13 11:59:29;;;;;;;58.65;29.75;;;10.70;99.90;;;;;;4794068;29;21596;-86
2021/11/13 12:02:24;;;;;;;56.50;29.55;;;10.70;99.90;;;;;;4796529;29;20038;-86
2021/11/13 12:04:53;;;;;;;50.45;28.58;;;10.70;99.90;;;;;;4794279;29;20473;-86
2021/11/13 12:07:31;;;;;;;49.10;28.10;;;10.70;99.90;;;;;;4766190;29;20039;-87
2021/11/13 12:09:59;;;;;;;58.10;29.08;;;10.70;99.90;;;;;;4778727;29;20042;-86
2021/11/13 12:12:25;;;;;;;57.10;27.63;;;10.70;99.90;;;;;;4779582;29;20204;-86
2021/11/13 12:14:51;;;;;;;57.10;29.45;;;10.80;99.90;;;;;;4774892;29;20046;-87
2021/11/13 12:17:32;;;;;;;61.95;27.50;;;10.80;99.90;;;;;;4769822;29;20043;-86
2021/11/13 12:20:04;;;;;;;56.28;30.23;;;10.80;99.90;;;;;;4778605;29;20041;-87
2021/11/13 12:22:43;;;;;;;50.55;27.23;;;10.90;99.90;;;;;;4785948;29;20670;-86
2021/11/13 12:25:20;;;;;;;47.25;27.05;;;10.80;99.90;;;;;;4781763;29;20047;-87
2021/11/13 12:28:10;;;;;;;50.78;28.23;;;10.90;99.90;;;;;;4792119;29;20042;-87
2021/11/13 12:30:40;;;;;;;53.03;27.02;;;10.80;99.90;;;;;;4795957;29;20054;-86
2021/11/13 12:33:24;;;;;;;59.72;28.65;;;10.90;99.90;;;;;;4774200;29;20106;-86
2021/11/13 12:35:52;;;;;;;49.38;28.05;;;10.90;99.90;;;;;;4797322;29;20042;-85
2021/11/13 12:38:48;;;;;;;53.88;27.67;;;10.90;99.90;;;;;;4798348;29;20111;-86
2021/11/13 12:41:18;;;;;;;61.50;29.85;;;11.00;99.90;;;;;;4785132;29;20247;-86
2021/11/13 12:44:10;;;;;;;61.13;29.42;;;11.00;99.90;;;;;;4785315;29;20700;-86
2021/11/13 12:46:46;;;;;;;68.10;29.75;;;11.00;99.90;;;;;;4790784;29;20430;-86
2021/11/13 12:49:19;;;;;;;66.72;31.67;;;11.00;99.90;;;;;;4797955;29;20034;-87
2021/11/13 12:51:59;;;;;;;57.25;30.38;;;11.10;99.90;;;;;;4795859;29;20039;-84